sensor_id;sensor_type;location;lat;lon;timestamp;P1;durP1;ratioP1;P2;durP2;ratioP2
22881;SDS011;11608;50.894;5.296;2023-05-29T00:01:23;22.85;;;20.98;;
22881;SDS011;11608;50.894;5.296;2023-05-29T00:03:49;22.73;;;20.75;;
22881;SDS011;11608;50.894;5.296;2023-05-29T00:06:15;21.92;;;20.00;;
22881;SDS011;11608;50.894;5.296;2023-05-29T00:08:41;22.10;;;20.25;;
22881;SDS011;11608;50.894;5.296;2023-05-29T00:11:07;22.88;;;20.88;;
22881;SDS011;11608;50.894;5.296;2023-05-29T00:13:34;22.83;;;20.83;;
22881;SDS011;11608;50.894;5.296;2023-05-29T00:16:00;23.70;;;21.38;;
22881;SDS011;11608;50.894;5.296;2023-05-29T00:18:28;22.85;;;20.38;;
22881;SDS011;11608;50.894;5.296;2023-05-29T00:20:54;24.95;;;21.90;;
22881;SDS011;11608;50.894;5.296;2023-05-29T00:23:21;23.25;;;20.95;;
22881;SDS011;11608;50.894;5.296;2023-05-29T00:25:47;24.10;;;21.63;;
22881;SDS011;11608;50.894;5.296;2023-05-29T00:28:13;24.65;;;22.10;;
22881;SDS011;11608;50.894;5.296;2023-05-29T00:30:39;23.75;;;21.63;;
22881;SDS011;11608;50.894;5.296;2023-05-29T00:33:05;23.55;;;21.25;;
22881;SDS011;11608;50.894;5.296;2023-05-29T00:35:31;23.15;;;21.00;;
22881;SDS011;11608;50.894;5.296;2023-05-29T00:37:58;22.90;;;20.67;;
22881;SDS011;11608;50.894;5.296;2023-05-29T00:40:24;23.20;;;21.25;;
22881;SDS011;11608;50.894;5.296;2023-05-29T00:42:50;23.80;;;21.65;;
22881;SDS011;11608;50.894;5.296;2023-05-29T00:45:17;24.38;;;22.02;;
22881;SDS011;11608;50.894;5.296;2023-05-29T00:47:43;24.15;;;21.77;;
22881;SDS011;11608;50.894;5.296;2023-05-29T00:50:10;23.48;;;21.40;;
22881;SDS011;11608;50.894;5.296;2023-05-29T00:52:38;23.60;;;21.17;;
22881;SDS011;11608;50.894;5.296;2023-05-29T00:55:05;23.88;;;21.58;;
22881;SDS011;11608;50.894;5.296;2023-05-29T00:57:32;23.67;;;21.58;;
22881;SDS011;11608;50.894;5.296;2023-05-29T00:59:59;24.33;;;21.88;;
22881;SDS011;11608;50.894;5.296;2023-05-29T01:02:26;24.33;;;22.17;;
22881;SDS011;11608;50.894;5.296;2023-05-29T01:04:54;24.33;;;22.13;;
22881;SDS011;11608;50.894;5.296;2023-05-29T01:07:20;24.48;;;22.05;;
22881;SDS011;11608;50.894;5.296;2023-05-29T01:09:47;24.45;;;22.23;;
22881;SDS011;11608;50.894;5.296;2023-05-29T01:12:19;23.92;;;21.73;;
22881;SDS011;11608;50.894;5.296;2023-05-29T01:25:20;24.38;;;22.08;;
22881;SDS011;11608;50.894;5.296;2023-05-29T01:27:47;24.38;;;22.20;;
22881;SDS011;11608;50.894;5.296;2023-05-29T01:30:14;24.45;;;22.42;;
22881;SDS011;11608;50.894;5.296;2023-05-29T01:32:41;24.70;;;22.30;;
22881;SDS011;11608;50.894;5.296;2023-05-29T01:35:07;25.02;;;22.42;;
22881;SDS011;11608;50.894;5.296;2023-05-29T01:37:34;26.00;;;23.55;;
22881;SDS011;11608;50.894;5.296;2023-05-29T01:40:00;23.80;;;22.00;;
22881;SDS011;11608;50.894;5.296;2023-05-29T01:42:26;24.77;;;22.63;;
22881;SDS011;11608;50.894;5.296;2023-05-29T01:44:54;25.00;;;22.63;;
22881;SDS011;11608;50.894;5.296;2023-05-29T01:47:20;26.05;;;23.63;;
22881;SDS011;11608;50.894;5.296;2023-05-29T01:49:47;25.33;;;22.95;;
22881;SDS011;11608;50.894;5.296;2023-05-29T01:52:15;25.75;;;23.27;;
22881;SDS011;11608;50.894;5.296;2023-05-29T01:54:41;24.98;;;22.65;;
22881;SDS011;11608;50.894;5.296;2023-05-29T01:57:07;25.60;;;23.23;;
22881;SDS011;11608;50.894;5.296;2023-05-29T01:59:33;25.95;;;23.50;;
22881;SDS011;11608;50.894;5.296;2023-05-29T02:02:07;25.42;;;22.95;;
22881;SDS011;11608;50.894;5.296;2023-05-29T02:04:33;25.58;;;23.35;;
22881;SDS011;11608;50.894;5.296;2023-05-29T02:06:59;25.38;;;23.15;;
22881;SDS011;11608;50.894;5.296;2023-05-29T02:09:25;26.33;;;23.75;;
22881;SDS011;11608;50.894;5.296;2023-05-29T02:11:52;26.13;;;23.52;;
22881;SDS011;11608;50.894;5.296;2023-05-29T02:14:18;26.05;;;23.63;;
22881;SDS011;11608;50.894;5.296;2023-05-29T02:16:44;25.38;;;22.95;;
22881;SDS011;11608;50.894;5.296;2023-05-29T02:19:10;26.60;;;23.95;;
22881;SDS011;11608;50.894;5.296;2023-05-29T02:21:37;26.00;;;23.55;;
22881;SDS011;11608;50.894;5.296;2023-05-29T02:24:04;25.80;;;23.13;;
22881;SDS011;11608;50.894;5.296;2023-05-29T02:26:31;25.70;;;23.30;;
22881;SDS011;11608;50.894;5.296;2023-05-29T02:28:57;25.85;;;23.15;;
22881;SDS011;11608;50.894;5.296;2023-05-29T02:31:23;28.17;;;22.38;;
22881;SDS011;11608;50.894;5.296;2023-05-29T02:33:49;25.55;;;22.90;;
22881;SDS011;11608;50.894;5.296;2023-05-29T02:36:15;25.50;;;22.75;;
22881;SDS011;11608;50.894;5.296;2023-05-29T02:38:42;23.85;;;21.52;;
22881;SDS011;11608;50.894;5.296;2023-05-29T02:41:08;25.20;;;22.50;;
22881;SDS011;11608;50.894;5.296;2023-05-29T02:43:34;25.38;;;23.08;;
22881;SDS011;11608;50.894;5.296;2023-05-29T02:46:00;24.67;;;22.23;;
22881;SDS011;11608;50.894;5.296;2023-05-29T02:48:26;27.48;;;23.77;;
22881;SDS011;11608;50.894;5.296;2023-05-29T02:50:54;25.63;;;22.98;;
22881;SDS011;11608;50.894;5.296;2023-05-29T02:53:20;25.17;;;22.38;;
22881;SDS011;11608;50.894;5.296;2023-05-29T02:55:46;24.60;;;22.20;;
22881;SDS011;11608;50.894;5.296;2023-05-29T02:58:13;27.83;;;22.27;;
22881;SDS011;11608;50.894;5.296;2023-05-29T03:00:41;23.35;;;21.02;;
22881;SDS011;11608;50.894;5.296;2023-05-29T03:03:07;24.13;;;21.08;;
22881;SDS011;11608;50.894;5.296;2023-05-29T03:05:33;24.38;;;20.83;;
22881;SDS011;11608;50.894;5.296;2023-05-29T03:07:59;22.70;;;20.40;;
22881;SDS011;11608;50.894;5.296;2023-05-29T03:10:26;26.38;;;21.00;;
22881;SDS011;11608;50.894;5.296;2023-05-29T03:12:54;22.83;;;20.55;;
22881;SDS011;11608;50.894;5.296;2023-05-29T03:15:20;25.98;;;21.02;;
22881;SDS011;11608;50.894;5.296;2023-05-29T03:17:46;24.05;;;20.80;;
22881;SDS011;11608;50.894;5.296;2023-05-29T03:20:12;22.52;;;20.52;;
22881;SDS011;11608;50.894;5.296;2023-05-29T03:22:38;23.83;;;20.75;;
22881;SDS011;11608;50.894;5.296;2023-05-29T03:25:05;22.42;;;20.10;;
22881;SDS011;11608;50.894;5.296;2023-05-29T03:27:31;26.60;;;21.33;;
22881;SDS011;11608;50.894;5.296;2023-05-29T03:29:57;23.40;;;20.88;;
22881;SDS011;11608;50.894;5.296;2023-05-29T03:32:24;22.77;;;20.38;;
22881;SDS011;11608;50.894;5.296;2023-05-29T03:34:50;23.42;;;19.88;;
22881;SDS011;11608;50.894;5.296;2023-05-29T03:37:16;28.17;;;20.98;;
22881;SDS011;11608;50.894;5.296;2023-05-29T03:39:42;23.35;;;20.90;;
22881;SDS011;11608;50.894;5.296;2023-05-29T03:42:08;27.35;;;20.42;;
22881;SDS011;11608;50.894;5.296;2023-05-29T03:44:34;25.05;;;21.05;;
22881;SDS011;11608;50.894;5.296;2023-05-29T03:47:00;25.95;;;20.20;;
22881;SDS011;11608;50.894;5.296;2023-05-29T03:49:26;22.73;;;20.17;;
22881;SDS011;11608;50.894;5.296;2023-05-29T03:51:52;23.20;;;20.70;;
22881;SDS011;11608;50.894;5.296;2023-05-29T03:54:18;22.70;;;20.48;;
22881;SDS011;11608;50.894;5.296;2023-05-29T03:56:44;22.65;;;20.33;;
22881;SDS011;11608;50.894;5.296;2023-05-29T03:59:10;27.92;;;19.75;;
22881;SDS011;11608;50.894;5.296;2023-05-29T04:01:36;23.05;;;20.38;;
22881;SDS011;11608;50.894;5.296;2023-05-29T04:04:03;21.88;;;19.70;;
22881;SDS011;11608;50.894;5.296;2023-05-29T04:06:29;21.85;;;19.40;;
22881;SDS011;11608;50.894;5.296;2023-05-29T04:08:55;21.85;;;19.67;;
22881;SDS011;11608;50.894;5.296;2023-05-29T04:11:21;22.75;;;19.88;;
22881;SDS011;11608;50.894;5.296;2023-05-29T04:13:47;24.10;;;20.05;;
22881;SDS011;11608;50.894;5.296;2023-05-29T04:16:14;22.13;;;19.50;;
22881;SDS011;11608;50.894;5.296;2023-05-29T04:18:40;21.88;;;19.58;;
22881;SDS011;11608;50.894;5.296;2023-05-29T04:21:06;22.08;;;19.92;;
22881;SDS011;11608;50.894;5.296;2023-05-29T04:23:32;21.75;;;19.38;;
22881;SDS011;11608;50.894;5.296;2023-05-29T04:25:58;21.15;;;18.92;;
22881;SDS011;11608;50.894;5.296;2023-05-29T04:28:27;21.30;;;19.13;;
22881;SDS011;11608;50.894;5.296;2023-05-29T04:30:54;21.90;;;19.42;;
22881;SDS011;11608;50.894;5.296;2023-05-29T04:33:21;23.08;;;19.15;;
22881;SDS011;11608;50.894;5.296;2023-05-29T04:35:48;21.63;;;19.13;;
22881;SDS011;11608;50.894;5.296;2023-05-29T04:38:14;26.63;;;19.98;;
22881;SDS011;11608;50.894;5.296;2023-05-29T04:40:41;22.90;;;20.13;;
22881;SDS011;11608;50.894;5.296;2023-05-29T04:43:08;21.83;;;19.63;;
22881;SDS011;11608;50.894;5.296;2023-05-29T04:45:34;25.25;;;19.38;;
22881;SDS011;11608;50.894;5.296;2023-05-29T04:48:02;28.02;;;19.40;;
22881;SDS011;11608;50.894;5.296;2023-05-29T04:50:28;20.67;;;18.45;;
22881;SDS011;11608;50.894;5.296;2023-05-29T04:52:56;21.20;;;19.15;;
22881;SDS011;11608;50.894;5.296;2023-05-29T04:55:22;24.70;;;18.70;;
22881;SDS011;11608;50.894;5.296;2023-05-29T04:57:48;24.83;;;19.73;;
22881;SDS011;11608;50.894;5.296;2023-05-29T05:00:15;22.65;;;19.02;;
22881;SDS011;11608;50.894;5.296;2023-05-29T05:02:43;21.25;;;18.98;;
22881;SDS011;11608;50.894;5.296;2023-05-29T05:05:09;23.23;;;19.45;;
22881;SDS011;11608;50.894;5.296;2023-05-29T05:07:35;24.25;;;19.27;;
22881;SDS011;11608;50.894;5.296;2023-05-29T05:10:04;22.33;;;20.02;;
22881;SDS011;11608;50.894;5.296;2023-05-29T05:12:31;24.02;;;19.58;;
22881;SDS011;11608;50.894;5.296;2023-05-29T05:14:57;21.98;;;19.40;;
22881;SDS011;11608;50.894;5.296;2023-05-29T05:17:23;25.10;;;19.77;;
22881;SDS011;11608;50.894;5.296;2023-05-29T05:19:49;23.30;;;19.08;;
22881;SDS011;11608;50.894;5.296;2023-05-29T05:22:17;24.67;;;20.08;;
22881;SDS011;11608;50.894;5.296;2023-05-29T05:24:43;22.10;;;19.90;;
22881;SDS011;11608;50.894;5.296;2023-05-29T05:27:09;24.80;;;19.17;;
22881;SDS011;11608;50.894;5.296;2023-05-29T05:29:35;24.77;;;19.65;;
22881;SDS011;11608;50.894;5.296;2023-05-29T05:32:01;21.17;;;18.70;;
22881;SDS011;11608;50.894;5.296;2023-05-29T05:34:27;24.38;;;19.88;;
22881;SDS011;11608;50.894;5.296;2023-05-29T05:36:53;22.38;;;19.40;;
22881;SDS011;11608;50.894;5.296;2023-05-29T05:39:19;22.15;;;19.25;;
22881;SDS011;11608;50.894;5.296;2023-05-29T05:41:46;23.13;;;19.23;;
22881;SDS011;11608;50.894;5.296;2023-05-29T05:44:12;24.63;;;20.02;;
22881;SDS011;11608;50.894;5.296;2023-05-29T05:46:38;22.90;;;19.73;;
22881;SDS011;11608;50.894;5.296;2023-05-29T05:49:04;26.15;;;20.00;;
22881;SDS011;11608;50.894;5.296;2023-05-29T05:51:30;22.42;;;19.25;;
22881;SDS011;11608;50.894;5.296;2023-05-29T05:53:56;26.42;;;19.92;;
22881;SDS011;11608;50.894;5.296;2023-05-29T05:56:23;27.05;;;20.92;;
22881;SDS011;11608;50.894;5.296;2023-05-29T05:58:49;21.15;;;19.15;;
22881;SDS011;11608;50.894;5.296;2023-05-29T06:01:16;22.08;;;19.67;;
22881;SDS011;11608;50.894;5.296;2023-05-29T06:03:42;22.58;;;20.17;;
22881;SDS011;11608;50.894;5.296;2023-05-29T06:06:08;23.90;;;19.27;;
22881;SDS011;11608;50.894;5.296;2023-05-29T06:08:35;26.58;;;20.10;;
22881;SDS011;11608;50.894;5.296;2023-05-29T06:11:02;24.40;;;20.05;;
22881;SDS011;11608;50.894;5.296;2023-05-29T06:13:29;22.63;;;20.23;;
22881;SDS011;11608;50.894;5.296;2023-05-29T06:15:55;23.08;;;20.13;;
22881;SDS011;11608;50.894;5.296;2023-05-29T06:18:21;22.77;;;19.88;;
22881;SDS011;11608;50.894;5.296;2023-05-29T06:20:48;21.33;;;19.10;;
22881;SDS011;11608;50.894;5.296;2023-05-29T06:23:15;21.80;;;19.13;;
22881;SDS011;11608;50.894;5.296;2023-05-29T06:25:41;21.17;;;19.23;;
22881;SDS011;11608;50.894;5.296;2023-05-29T06:28:08;21.92;;;19.83;;
22881;SDS011;11608;50.894;5.296;2023-05-29T06:30:34;22.60;;;20.35;;
22881;SDS011;11608;50.894;5.296;2023-05-29T06:33:00;22.33;;;19.40;;
22881;SDS011;11608;50.894;5.296;2023-05-29T06:35:26;24.80;;;19.15;;
22881;SDS011;11608;50.894;5.296;2023-05-29T06:37:52;21.67;;;19.17;;
22881;SDS011;11608;50.894;5.296;2023-05-29T06:40:18;21.58;;;19.38;;
22881;SDS011;11608;50.894;5.296;2023-05-29T06:42:45;23.08;;;19.50;;
22881;SDS011;11608;50.894;5.296;2023-05-29T06:45:11;20.90;;;18.70;;
22881;SDS011;11608;50.894;5.296;2023-05-29T06:47:41;21.85;;;19.42;;
22881;SDS011;11608;50.894;5.296;2023-05-29T06:50:07;23.42;;;19.88;;
22881;SDS011;11608;50.894;5.296;2023-05-29T06:52:34;21.45;;;19.00;;
22881;SDS011;11608;50.894;5.296;2023-05-29T06:55:00;21.17;;;19.02;;
22881;SDS011;11608;50.894;5.296;2023-05-29T06:57:26;22.13;;;19.75;;
22881;SDS011;11608;50.894;5.296;2023-05-29T06:59:52;25.35;;;19.67;;
22881;SDS011;11608;50.894;5.296;2023-05-29T07:02:18;22.27;;;20.05;;
22881;SDS011;11608;50.894;5.296;2023-05-29T07:04:44;21.65;;;19.38;;
22881;SDS011;11608;50.894;5.296;2023-05-29T07:07:11;23.17;;;20.27;;
22881;SDS011;11608;50.894;5.296;2023-05-29T07:09:37;24.33;;;19.17;;
22881;SDS011;11608;50.894;5.296;2023-05-29T07:12:04;23.08;;;19.75;;
22881;SDS011;11608;50.894;5.296;2023-05-29T07:14:30;22.63;;;19.02;;
22881;SDS011;11608;50.894;5.296;2023-05-29T07:16:56;21.98;;;19.50;;
22881;SDS011;11608;50.894;5.296;2023-05-29T07:19:22;20.60;;;18.70;;
22881;SDS011;11608;50.894;5.296;2023-05-29T07:21:48;27.48;;;20.20;;
22881;SDS011;11608;50.894;5.296;2023-05-29T07:24:15;22.88;;;20.45;;
22881;SDS011;11608;50.894;5.296;2023-05-29T07:26:41;21.65;;;19.42;;
22881;SDS011;11608;50.894;5.296;2023-05-29T07:29:07;27.55;;;19.90;;
22881;SDS011;11608;50.894;5.296;2023-05-29T07:31:35;22.15;;;19.55;;
22881;SDS011;11608;50.894;5.296;2023-05-29T07:34:04;21.90;;;19.10;;
22881;SDS011;11608;50.894;5.296;2023-05-29T07:36:30;20.75;;;18.67;;
22881;SDS011;11608;50.894;5.296;2023-05-29T07:38:57;22.63;;;18.92;;
22881;SDS011;11608;50.894;5.296;2023-05-29T07:41:23;20.73;;;18.70;;
22881;SDS011;11608;50.894;5.296;2023-05-29T07:43:51;21.92;;;19.58;;
22881;SDS011;11608;50.894;5.296;2023-05-29T07:46:18;20.80;;;18.77;;
22881;SDS011;11608;50.894;5.296;2023-05-29T07:48:44;21.30;;;18.60;;
22881;SDS011;11608;50.894;5.296;2023-05-29T07:51:11;21.60;;;19.30;;
22881;SDS011;11608;50.894;5.296;2023-05-29T07:53:37;21.17;;;19.05;;
22881;SDS011;11608;50.894;5.296;2023-05-29T07:56:03;20.85;;;18.65;;
22881;SDS011;11608;50.894;5.296;2023-05-29T07:58:30;22.45;;;19.50;;
22881;SDS011;11608;50.894;5.296;2023-05-29T08:00:57;22.45;;;19.13;;
22881;SDS011;11608;50.894;5.296;2023-05-29T08:03:24;21.25;;;18.95;;
22881;SDS011;11608;50.894;5.296;2023-05-29T08:05:51;24.88;;;19.98;;
22881;SDS011;11608;50.894;5.296;2023-05-29T08:08:17;22.42;;;19.42;;
22881;SDS011;11608;50.894;5.296;2023-05-29T08:10:43;22.67;;;19.63;;
22881;SDS011;11608;50.894;5.296;2023-05-29T08:13:10;24.63;;;19.52;;
22881;SDS011;11608;50.894;5.296;2023-05-29T08:15:36;21.30;;;18.90;;
22881;SDS011;11608;50.894;5.296;2023-05-29T08:18:02;21.83;;;19.55;;
22881;SDS011;11608;50.894;5.296;2023-05-29T08:20:30;20.92;;;18.83;;
22881;SDS011;11608;50.894;5.296;2023-05-29T08:22:57;20.90;;;18.90;;
22881;SDS011;11608;50.894;5.296;2023-05-29T08:25:23;21.67;;;19.40;;
22881;SDS011;11608;50.894;5.296;2023-05-29T08:27:49;21.75;;;19.55;;
22881;SDS011;11608;50.894;5.296;2023-05-29T08:30:15;20.85;;;18.80;;
22881;SDS011;11608;50.894;5.296;2023-05-29T08:32:41;21.48;;;19.17;;
22881;SDS011;11608;50.894;5.296;2023-05-29T08:35:07;23.10;;;19.10;;
22881;SDS011;11608;50.894;5.296;2023-05-29T08:37:33;20.83;;;18.70;;
22881;SDS011;11608;50.894;5.296;2023-05-29T08:40:00;21.20;;;19.08;;
22881;SDS011;11608;50.894;5.296;2023-05-29T08:42:29;21.88;;;19.23;;
22881;SDS011;11608;50.894;5.296;2023-05-29T08:45:02;23.20;;;19.42;;
22881;SDS011;11608;50.894;5.296;2023-05-29T08:47:29;21.10;;;19.10;;
22881;SDS011;11608;50.894;5.296;2023-05-29T08:49:58;21.92;;;19.77;;
22881;SDS011;11608;50.894;5.296;2023-05-29T08:52:25;24.65;;;19.38;;
22881;SDS011;11608;50.894;5.296;2023-05-29T08:54:55;24.33;;;19.48;;
22881;SDS011;11608;50.894;5.296;2023-05-29T08:57:22;23.40;;;19.65;;
22881;SDS011;11608;50.894;5.296;2023-05-29T08:59:50;22.10;;;19.80;;
22881;SDS011;11608;50.894;5.296;2023-05-29T09:02:17;20.83;;;18.80;;
22881;SDS011;11608;50.894;5.296;2023-05-29T09:04:43;21.92;;;19.40;;
22881;SDS011;11608;50.894;5.296;2023-05-29T09:07:19;25.17;;;19.38;;
22881;SDS011;11608;50.894;5.296;2023-05-29T09:09:45;25.60;;;19.50;;
22881;SDS011;11608;50.894;5.296;2023-05-29T09:12:11;23.63;;;19.08;;
22881;SDS011;11608;50.894;5.296;2023-05-29T09:14:40;21.27;;;18.45;;
22881;SDS011;11608;50.894;5.296;2023-05-29T09:17:07;23.80;;;19.17;;
22881;SDS011;11608;50.894;5.296;2023-05-29T09:19:34;21.92;;;18.75;;
22881;SDS011;11608;50.894;5.296;2023-05-29T09:22:04;23.35;;;19.20;;
22881;SDS011;11608;50.894;5.296;2023-05-29T09:24:34;21.20;;;19.00;;
22881;SDS011;11608;50.894;5.296;2023-05-29T09:27:01;24.35;;;19.08;;
22881;SDS011;11608;50.894;5.296;2023-05-29T09:29:40;21.15;;;18.77;;
22881;SDS011;11608;50.894;5.296;2023-05-29T09:32:10;23.35;;;18.65;;
22881;SDS011;11608;50.894;5.296;2023-05-29T09:34:59;22.60;;;18.80;;
22881;SDS011;11608;50.894;5.296;2023-05-29T09:37:33;22.15;;;19.13;;
22881;SDS011;11608;50.894;5.296;2023-05-29T09:43:16;21.63;;;19.13;;
22881;SDS011;11608;50.894;5.296;2023-05-29T09:45:43;25.08;;;18.85;;
22881;SDS011;11608;50.894;5.296;2023-05-29T09:48:17;20.42;;;18.30;;
22881;SDS011;11608;50.894;5.296;2023-05-29T09:50:44;21.55;;;19.35;;
22881;SDS011;11608;50.894;5.296;2023-05-29T09:53:16;21.30;;;19.25;;
22881;SDS011;11608;50.894;5.296;2023-05-29T09:58:47;21.38;;;19.23;;
22881;SDS011;11608;50.894;5.296;2023-05-29T10:01:23;21.27;;;19.08;;
22881;SDS011;11608;50.894;5.296;2023-05-29T10:04:11;20.85;;;18.60;;
22881;SDS011;11608;50.894;5.296;2023-05-29T10:06:55;22.00;;;19.65;;
22881;SDS011;11608;50.894;5.296;2023-05-29T10:09:42;21.27;;;18.92;;
22881;SDS011;11608;50.894;5.296;2023-05-29T10:12:20;20.67;;;18.55;;
22881;SDS011;11608;50.894;5.296;2023-05-29T10:14:47;21.08;;;18.77;;
22881;SDS011;11608;50.894;5.296;2023-05-29T10:17:13;22.80;;;19.73;;
22881;SDS011;11608;50.894;5.296;2023-05-29T10:19:41;22.58;;;20.23;;
22881;SDS011;11608;50.894;5.296;2023-05-29T10:22:07;24.42;;;21.20;;
22881;SDS011;11608;50.894;5.296;2023-05-29T10:24:35;23.38;;;20.88;;
22881;SDS011;11608;50.894;5.296;2023-05-29T10:27:02;21.50;;;19.40;;
22881;SDS011;11608;50.894;5.296;2023-05-29T10:29:39;22.83;;;20.33;;
22881;SDS011;11608;50.894;5.296;2023-05-29T10:32:27;21.98;;;20.02;;
22881;SDS011;11608;50.894;5.296;2023-05-29T10:37:42;21.70;;;19.48;;
22881;SDS011;11608;50.894;5.296;2023-05-29T10:40:11;23.20;;;19.38;;
22881;SDS011;11608;50.894;5.296;2023-05-29T10:42:50;21.70;;;18.98;;
22881;SDS011;11608;50.894;5.296;2023-05-29T10:48:00;21.23;;;18.98;;
22881;SDS011;11608;50.894;5.296;2023-05-29T10:50:46;21.42;;;19.48;;
22881;SDS011;11608;50.894;5.296;2023-05-29T10:53:15;21.23;;;18.98;;
22881;SDS011;11608;50.894;5.296;2023-05-29T10:55:44;20.95;;;18.92;;
22881;SDS011;11608;50.894;5.296;2023-05-29T10:58:29;22.48;;;19.15;;
22881;SDS011;11608;50.894;5.296;2023-05-29T11:00:55;21.92;;;19.67;;
22881;SDS011;11608;50.894;5.296;2023-05-29T11:03:24;21.63;;;19.38;;
22881;SDS011;11608;50.894;5.296;2023-05-29T11:08:44;23.50;;;19.30;;
22881;SDS011;11608;50.894;5.296;2023-05-29T11:13:57;21.13;;;19.02;;
22881;SDS011;11608;50.894;5.296;2023-05-29T11:18:56;24.25;;;18.92;;
22881;SDS011;11608;50.894;5.296;2023-05-29T11:21:33;21.00;;;18.95;;
22881;SDS011;11608;50.894;5.296;2023-05-29T11:24:02;20.80;;;18.70;;
22881;SDS011;11608;50.894;5.296;2023-05-29T11:26:34;21.75;;;19.45;;
22881;SDS011;11608;50.894;5.296;2023-05-29T11:29:00;21.45;;;18.58;;
22881;SDS011;11608;50.894;5.296;2023-05-29T11:31:28;20.60;;;18.55;;
22881;SDS011;11608;50.894;5.296;2023-05-29T11:33:58;20.77;;;18.67;;
22881;SDS011;11608;50.894;5.296;2023-05-29T11:36:25;21.48;;;19.27;;
22881;SDS011;11608;50.894;5.296;2023-05-29T11:38:53;22.83;;;18.80;;
22881;SDS011;11608;50.894;5.296;2023-05-29T11:41:19;21.25;;;18.27;;
22881;SDS011;11608;50.894;5.296;2023-05-29T11:43:55;20.00;;;18.17;;
22881;SDS011;11608;50.894;5.296;2023-05-29T11:46:21;21.67;;;19.05;;
22881;SDS011;11608;50.894;5.296;2023-05-29T11:48:47;19.92;;;18.13;;
22881;SDS011;11608;50.894;5.296;2023-05-29T11:51:14;20.70;;;18.75;;
22881;SDS011;11608;50.894;5.296;2023-05-29T11:53:43;20.63;;;18.75;;
22881;SDS011;11608;50.894;5.296;2023-05-29T11:56:12;20.88;;;19.02;;
22881;SDS011;11608;50.894;5.296;2023-05-29T11:58:40;21.55;;;19.50;;
22881;SDS011;11608;50.894;5.296;2023-05-29T12:01:10;21.05;;;18.83;;
22881;SDS011;11608;50.894;5.296;2023-05-29T12:03:42;23.77;;;19.85;;
22881;SDS011;11608;50.894;5.296;2023-05-29T12:06:09;21.10;;;18.92;;
22881;SDS011;11608;50.894;5.296;2023-05-29T12:08:38;20.13;;;18.42;;
22881;SDS011;11608;50.894;5.296;2023-05-29T12:11:04;21.90;;;19.77;;
22881;SDS011;11608;50.894;5.296;2023-05-29T12:13:31;20.75;;;18.85;;
22881;SDS011;11608;50.894;5.296;2023-05-29T12:15:57;20.83;;;18.67;;
22881;SDS011;11608;50.894;5.296;2023-05-29T12:18:28;24.63;;;18.55;;
22881;SDS011;11608;50.894;5.296;2023-05-29T12:21:01;22.25;;;18.40;;
22881;SDS011;11608;50.894;5.296;2023-05-29T12:23:30;19.83;;;17.92;;
22881;SDS011;11608;50.894;5.296;2023-05-29T12:25:56;21.08;;;19.25;;
22881;SDS011;11608;50.894;5.296;2023-05-29T12:28:25;21.08;;;19.23;;
22881;SDS011;11608;50.894;5.296;2023-05-29T12:30:57;20.75;;;18.90;;
22881;SDS011;11608;50.894;5.296;2023-05-29T12:36:04;20.98;;;19.17;;
22881;SDS011;11608;50.894;5.296;2023-05-29T12:38:31;21.90;;;19.67;;
22881;SDS011;11608;50.894;5.296;2023-05-29T12:41:01;21.35;;;19.20;;
22881;SDS011;11608;50.894;5.296;2023-05-29T12:43:27;20.50;;;18.50;;
22881;SDS011;11608;50.894;5.296;2023-05-29T12:45:56;20.23;;;18.30;;
22881;SDS011;11608;50.894;5.296;2023-05-29T12:48:39;21.02;;;19.02;;
22881;SDS011;11608;50.894;5.296;2023-05-29T12:51:05;21.08;;;18.85;;
22881;SDS011;11608;50.894;5.296;2023-05-29T12:53:33;20.02;;;18.20;;
22881;SDS011;11608;50.894;5.296;2023-05-29T12:55:59;21.80;;;19.60;;
22881;SDS011;11608;50.894;5.296;2023-05-29T12:58:26;20.92;;;18.83;;
22881;SDS011;11608;50.894;5.296;2023-05-29T13:00:55;20.02;;;18.27;;
22881;SDS011;11608;50.894;5.296;2023-05-29T13:03:21;20.50;;;18.60;;
22881;SDS011;11608;50.894;5.296;2023-05-29T13:05:58;20.70;;;18.75;;
22881;SDS011;11608;50.894;5.296;2023-05-29T13:08:25;20.90;;;18.63;;
22881;SDS011;11608;50.894;5.296;2023-05-29T13:10:53;21.05;;;18.92;;
22881;SDS011;11608;50.894;5.296;2023-05-29T13:13:19;20.80;;;18.50;;
22881;SDS011;11608;50.894;5.296;2023-05-29T13:15:47;20.58;;;18.40;;
22881;SDS011;11608;50.894;5.296;2023-05-29T13:18:13;21.25;;;19.15;;
22881;SDS011;11608;50.894;5.296;2023-05-29T13:20:41;20.58;;;18.55;;
22881;SDS011;11608;50.894;5.296;2023-05-29T13:23:10;22.50;;;18.58;;
22881;SDS011;11608;50.894;5.296;2023-05-29T13:25:36;20.80;;;18.80;;
22881;SDS011;11608;50.894;5.296;2023-05-29T13:28:02;20.77;;;18.15;;
22881;SDS011;11608;50.894;5.296;2023-05-29T13:30:31;21.65;;;19.33;;
22881;SDS011;11608;50.894;5.296;2023-05-29T13:33:00;20.85;;;18.77;;
22881;SDS011;11608;50.894;5.296;2023-05-29T13:35:28;20.73;;;18.75;;
22881;SDS011;11608;50.894;5.296;2023-05-29T13:37:57;21.00;;;18.60;;
22881;SDS011;11608;50.894;5.296;2023-05-29T13:40:23;20.30;;;18.25;;
22881;SDS011;11608;50.894;5.296;2023-05-29T13:42:51;19.65;;;17.65;;
22881;SDS011;11608;50.894;5.296;2023-05-29T13:45:22;22.17;;;18.83;;
22881;SDS011;11608;50.894;5.296;2023-05-29T13:47:52;20.08;;;18.08;;
22881;SDS011;11608;50.894;5.296;2023-05-29T13:50:18;20.17;;;18.08;;
22881;SDS011;11608;50.894;5.296;2023-05-29T13:52:49;20.10;;;18.02;;
22881;SDS011;11608;50.894;5.296;2023-05-29T13:55:22;21.27;;;17.80;;
22881;SDS011;11608;50.894;5.296;2023-05-29T13:57:48;20.33;;;18.15;;
22881;SDS011;11608;50.894;5.296;2023-05-29T14:00:17;19.83;;;17.92;;
22881;SDS011;11608;50.894;5.296;2023-05-29T14:02:43;21.15;;;18.90;;
22881;SDS011;11608;50.894;5.296;2023-05-29T14:05:09;20.48;;;18.38;;
22881;SDS011;11608;50.894;5.296;2023-05-29T14:07:37;20.42;;;18.55;;
22881;SDS011;11608;50.894;5.296;2023-05-29T14:10:04;21.55;;;18.85;;
22881;SDS011;11608;50.894;5.296;2023-05-29T14:12:30;20.52;;;18.42;;
22881;SDS011;11608;50.894;5.296;2023-05-29T14:14:56;20.80;;;18.67;;
22881;SDS011;11608;50.894;5.296;2023-05-29T14:17:33;21.10;;;19.00;;
22881;SDS011;11608;50.894;5.296;2023-05-29T14:20:02;20.77;;;18.25;;
22881;SDS011;11608;50.894;5.296;2023-05-29T14:22:39;20.42;;;18.40;;
22881;SDS011;11608;50.894;5.296;2023-05-29T14:25:07;20.05;;;18.27;;
22881;SDS011;11608;50.894;5.296;2023-05-29T14:27:41;19.85;;;17.83;;
22881;SDS011;11608;50.894;5.296;2023-05-29T14:30:09;19.80;;;17.80;;
22881;SDS011;11608;50.894;5.296;2023-05-29T14:32:54;19.95;;;18.00;;
22881;SDS011;11608;50.894;5.296;2023-05-29T14:35:21;19.85;;;17.92;;
22881;SDS011;11608;50.894;5.296;2023-05-29T14:37:47;19.75;;;17.80;;
22881;SDS011;11608;50.894;5.296;2023-05-29T14:40:14;20.33;;;18.30;;
22881;SDS011;11608;50.894;5.296;2023-05-29T14:42:52;19.60;;;17.90;;
22881;SDS011;11608;50.894;5.296;2023-05-29T14:45:18;19.85;;;18.05;;
22881;SDS011;11608;50.894;5.296;2023-05-29T14:47:46;20.35;;;18.27;;
22881;SDS011;11608;50.894;5.296;2023-05-29T14:50:27;21.02;;;18.92;;
22881;SDS011;11608;50.894;5.296;2023-05-29T14:52:56;20.05;;;18.10;;
22881;SDS011;11608;50.894;5.296;2023-05-29T14:55:22;20.75;;;18.50;;
22881;SDS011;11608;50.894;5.296;2023-05-29T14:57:57;19.98;;;18.00;;